Burlington, CO

7:11 PM MDT on August 31, 2016 (GMT -0600)
Kit Carson County | | Change Station

Elev 4216 ft 39.24 °N, 102.28 °W | Updated 18 minutes ago

Clear
Clear
65 °F
Feels Like 65 °F
N
10
Wind Variable Wind from ESE

Today
High -- | Low -- °F
--% Chance of Precip.
Yesterday
High -- | Low -- °F
Precip. -- in
Pressure 30.14 in
Visibility 10.0 miles
Clouds Clear
Dew Point 61 °F
Humidity 87%
Rainfall 0.09 in
Snow Depth Not available.
6:17 AM 7:20 PM
Waning Crescent, 0% visible
METAR KITR 010053Z AUTO 11009KT 10SM CLR 18/16 A3023 RMK AO2 SLP204 T01830161
Pressure 30.14 in
Visibility 10.0 miles
Clouds Clear
Dew Point 61 °F
Humidity 87%
Rainfall 0.09 in
Snow Depth Not available.
6:17 AM 7:20 PM
Waning Crescent, 0% visible
METAR KITR 010053Z AUTO 11009KT 10SM CLR 18/16 A3023 RMK AO2 SLP204 T01830161

10-Day Weather Forecast

Almanac

Astronomy

Aug. 31, 2016 Rise Set
Actual Time
Civil Twilight
Nautical Twilight
Astronomical Twilight
Moon
Length of Visible Light
Length of Day
Tomorrow will be .
, % of the Moon is Illuminated

Today's Extremes

State Highs State Lows

Community

WunderPhotos

Upload Photos

1,936,257 photos uploaded!

WunderBlog® & News

Nearby

Air Quality

  Air Quality AQ Index Pollutant
Not available.

Snow Depth

Station Depth Elevation

Earthquake Activity

City Distance Mag. Time & Date
Minimum magnitude displayed is 2.5.

Coastal Water Temperatures

Place Temperature

Stations

Nearby Weather Stations

Station Location Temp. Windchill Dew Point Humidity Wind Precip. Elev Updated Type
                   

Watches & Warnings

There are currently no watches in effect.